Time;durP1;ratioP1;P1;durP2;ratioP2;P2;SDS_P1;SDS_P2;PMS_P1;PMS_P2;Temp;Humidity;BMP_temperature;BMP_pressure;BME280_temperature;BME280_humidity;BME280_pressure;Samples;Min_cycle;Max_cycle;Signal;HPM_P1;HPM_P2
2021/09/20 00:01:48;;;;;;;24.17;7.28;;;;;;;16.19;72.05;94805.19;4923908;29;20483;-83
2021/09/20 00:04:13;;;;;;;10.70;7.13;;;;;;;16.19;72.04;94805.97;4931448;29;20095;-82
2021/09/20 00:06:38;;;;;;;11.68;7.78;;;;;;;16.16;72.11;94800.47;4933289;29;20086;-83
2021/09/20 00:09:04;;;;;;;11.07;6.82;;;;;;;16.14;72.16;94792.88;4934610;29;20047;-82
2021/09/20 00:11:30;;;;;;;18.17;7.30;;;;;;;16.11;72.03;94798.66;4932603;29;20048;-82
2021/09/20 00:13:55;;;;;;;7.50;6.43;;;;;;;16.11;72.01;94797.88;4933190;29;20095;-83
2021/09/20 00:16:20;;;;;;;13.25;6.47;;;;;;;16.09;72.16;94798.13;4932899;29;20031;-82
2021/09/20 00:18:46;;;;;;;12.82;6.80;;;;;;;16.07;71.89;94796.81;4934877;29;20033;-82
2021/09/20 00:21:11;;;;;;;10.00;6.22;;;;;;;16.02;71.95;94794.22;4934048;29;20064;-82
2021/09/20 00:23:37;;;;;;;20.40;7.25;;;;;;;15.99;72.27;94790.28;4949974;29;20051;-82
2021/09/20 00:26:02;;;;;;;21.45;6.75;;;;;;;15.96;71.80;94790.81;4944863;29;20040;-82
2021/09/20 00:28:28;;;;;;;15.90;6.55;;;;;;;15.96;72.37;94785.59;4937648;29;20039;-82
2021/09/20 00:30:53;;;;;;;27.90;7.15;;;;;;;15.90;72.28;94782.16;4906001;29;20059;-82
2021/09/20 00:33:19;;;;;;;8.27;5.97;;;;;;;15.88;72.17;94781.66;4931210;29;20063;-82
2021/09/20 00:35:45;;;;;;;15.40;6.13;;;;;;;15.90;72.33;94781.38;5058299;23;20090;-82
2021/09/20 00:38:10;;;;;;;12.48;6.22;;;;;;;15.86;72.42;94775.09;4928950;29;20040;-82
2021/09/20 00:40:36;;;;;;;9.82;6.30;;;;;;;15.86;72.47;94775.09;4931959;29;20032;-82
2021/09/20 00:43:02;;;;;;;11.18;6.38;;;;;;;15.86;72.67;94775.88;4917512;29;20035;-82
2021/09/20 00:45:28;;;;;;;10.05;6.88;;;;;;;15.85;72.76;94776.94;4919888;29;20044;-81
2021/09/20 00:47:53;;;;;;;16.45;6.50;;;;;;;15.84;72.61;94777.22;4932215;29;20032;-82
2021/09/20 00:50:18;;;;;;;11.80;6.05;;;;;;;15.81;72.66;94775.91;4925991;29;20032;-82
2021/09/20 00:53:10;;;;;;;13.95;5.95;;;;;;;15.78;72.68;94763.34;4909831;29;20040;-83
2021/09/20 00:55:35;;;;;;;6.53;5.70;;;;;;;15.76;72.48;94759.38;4923596;29;20051;-83
2021/09/20 00:58:01;;;;;;;15.77;5.97;;;;;;;15.72;72.68;94758.34;4920879;29;20055;-82
2021/09/20 01:00:27;;;;;;;13.32;5.97;;;;;;;15.72;72.51;94760.97;4907622;29;20036;-83
2021/09/20 01:02:52;;;;;;;21.27;6.30;;;;;;;15.70;72.48;94771.72;4904133;29;20035;-83
2021/09/20 01:05:18;;;;;;;15.20;5.95;;;;;;;15.70;72.36;94770.94;4923560;29;20567;-82
2021/09/20 01:07:43;;;;;;;15.00;6.50;;;;;;;15.68;71.69;94773.81;4905380;29;20039;-83
2021/09/20 01:10:09;;;;;;;19.50;5.80;;;;;;;15.64;72.67;94766.75;4904867;29;20067;-83
2021/09/20 01:12:34;;;;;;;16.95;6.53;;;;;;;15.64;72.03;94774.63;4921829;29;20103;-82
2021/09/20 01:15:00;;;;;;;10.95;6.63;;;;;;;15.64;72.22;94777.25;4922479;29;20042;-83
2021/09/20 01:17:25;;;;;;;20.30;6.13;;;;;;;15.59;72.48;94789.28;4923597;29;20039;-83
2021/09/20 01:19:51;;;;;;;13.30;6.75;;;;;;;15.56;72.03;94781.13;4905117;29;20028;-83
2021/09/20 01:22:18;;;;;;;26.30;11.10;;;;;;;15.52;71.87;94770.41;4920752;29;20040;-83
2021/09/20 01:24:43;;;;;;;21.95;15.07;;;;;;;15.52;71.98;94765.16;4922007;29;20036;-83
2021/09/20 01:27:11;;;;;;;14.73;7.05;;;;;;;15.49;71.92;94778.00;4921488;29;20035;-83
2021/09/20 01:29:37;;;;;;;8.45;7.03;;;;;;;15.41;73.18;94774.06;4907409;29;20036;-83
2021/09/20 01:32:04;;;;;;;15.55;7.90;;;;;;;15.36;74.79;94771.44;4921469;29;20024;-83
2021/09/20 01:34:30;;;;;;;15.32;8.93;;;;;;;15.38;75.44;94776.41;4922836;29;20040;-83
2021/09/20 01:36:55;;;;;;;12.50;6.97;;;;;;;15.39;74.79;94776.16;5191637;23;20103;-83
2021/09/20 01:39:25;;;;;;;16.05;7.78;;;;;;;15.39;75.37;94773.53;4947097;29;20051;-83
2021/09/20 01:41:51;;;;;;;12.43;7.30;;;;;;;15.44;74.78;94775.38;4918343;29;20518;-83
2021/09/20 01:44:17;;;;;;;12.15;7.40;;;;;;;15.45;74.60;94777.72;4895280;29;20036;-82
2021/09/20 01:46:51;;;;;;;8.60;6.70;;;;;;;15.50;74.45;94777.72;4892399;29;20033;-82
2021/09/20 01:49:16;;;;;;;10.43;6.30;;;;;;;15.52;74.07;94775.63;4911642;29;20104;-82
2021/09/20 01:51:42;;;;;;;11.50;6.60;;;;;;;15.52;74.27;94770.41;4915495;29;20040;-82
2021/09/20 01:54:07;;;;;;;7.75;6.18;;;;;;;15.56;74.82;94774.06;4914903;29;20037;-82
2021/09/20 01:56:33;;;;;;;8.95;6.18;;;;;;;15.55;75.30;94769.88;4899544;29;20091;-83
2021/09/20 01:58:59;;;;;;;7.50;6.30;;;;;;;15.61;74.88;94789.81;4921221;29;20094;-83
2021/09/20 02:01:25;;;;;;;11.50;6.20;;;;;;;15.58;73.34;94774.56;4923674;29;20032;-82
2021/09/20 02:03:51;;;;;;;14.18;8.73;;;;;;;15.56;72.75;94776.69;4922353;29;20127;-82
2021/09/20 02:06:17;;;;;;;15.82;10.13;;;;;;;15.56;74.09;94768.81;4995442;23;20052;-82
2021/09/20 02:08:42;;;;;;;71.97;37.13;;;;;;;15.58;72.81;94769.31;4925560;29;20420;-82
2021/09/20 02:11:08;;;;;;;34.17;20.45;;;;;;;15.56;72.34;94771.44;4906793;29;20037;-82
2021/09/20 02:13:33;;;;;;;66.65;35.65;;;;;;;15.55;72.71;94759.38;4889285;29;20036;-83
2021/09/20 02:15:59;;;;;;;55.47;28.95;;;;;;;15.56;72.80;94755.72;4958323;23;20045;-82
2021/09/20 02:18:24;;;;;;;67.68;31.17;;;;;;;15.56;72.39;94745.22;4922389;29;20488;-83
2021/09/20 02:21:06;;;;;;;15.25;10.25;;;;;;;15.57;73.76;94746.00;4913082;29;20095;-83
2021/09/20 02:23:32;;;;;;;20.20;11.75;;;;;;;15.56;73.90;94739.97;4902434;29;20080;-83
2021/09/20 02:25:58;;;;;;;64.40;32.45;;;;;;;15.56;72.72;94729.50;4915697;29;20064;-82
2021/09/20 02:28:24;;;;;;;83.45;37.40;;;;;;;15.51;72.03;94724.28;4902862;29;20115;-83
2021/09/20 02:30:49;;;;;;;65.32;33.85;;;;;;;15.50;71.19;94714.84;5021335;23;20117;-84
2021/09/20 02:33:15;;;;;;;63.92;31.88;;;;;;;15.49;71.73;94721.13;4952516;29;20043;-84
2021/09/20 02:35:40;;;;;;;64.47;25.65;;;;;;;15.45;71.17;94711.41;4945509;29;20055;-83
2021/09/20 02:38:06;;;;;;;54.53;16.75;;;;;;;15.42;71.07;94709.34;4922325;29;20040;-83
2021/09/20 02:40:31;;;;;;;22.65;11.65;;;;;;;15.40;70.92;94708.81;4934508;29;20047;-84
2021/09/20 02:42:57;;;;;;;46.28;14.60;;;;;;;15.34;71.09;94710.66;4934397;29;20040;-84
2021/09/20 02:45:22;;;;;;;44.58;14.65;;;;;;;15.25;71.57;94712.22;4933058;29;20427;-83
2021/09/20 02:47:48;;;;;;;41.22;15.65;;;;;;;15.26;71.92;94719.03;4933964;29;20511;-83
2021/09/20 02:50:24;;;;;;;56.33;19.70;;;;;;;15.25;71.43;94720.88;4913949;29;20114;-83
2021/09/20 02:52:49;;;;;;;52.15;15.15;;;;;;;15.21;71.73;94721.66;4901976;29;20040;-85
2021/09/20 02:55:15;;;;;;;27.92;12.32;;;;;;;15.13;71.65;94730.84;4930837;23;20055;-83
2021/09/20 02:57:41;;;;;;;46.92;14.73;;;;;;;15.11;71.95;94727.69;4944556;28;20054;-83
2021/09/20 03:00:07;;;;;;;39.97;12.40;;;;;;;15.11;71.47;94735.53;4978978;23;20043;-81
2021/09/20 03:02:33;;;;;;;37.42;13.20;;;;;;;15.12;71.96;94733.72;4925660;29;20451;-83
2021/09/20 03:04:58;;;;;;;36.60;13.20;;;;;;;15.13;71.61;94745.75;4927446;29;20050;-83
2021/09/20 03:07:24;;;;;;;31.05;12.30;;;;;;;15.14;72.36;94736.88;4911311;29;20543;-83
2021/09/20 03:09:49;;;;;;;27.80;9.82;;;;;;;15.16;73.60;94738.19;4928646;29;20024;-84
2021/09/20 03:12:14;;;;;;;17.35;9.75;;;;;;;15.17;74.37;94736.34;4928168;29;20044;-84
2021/09/20 03:14:40;;;;;;;17.52;9.25;;;;;;;15.20;73.92;94741.06;4928081;29;20040;-84
2021/09/20 03:17:09;;;;;;;10.93;7.65;;;;;;;15.15;73.61;94741.06;5806969;23;20345;-83
2021/09/20 03:19:35;;;;;;;21.20;10.20;;;;;;;15.19;73.50;94750.75;4954235;29;20047;-83
2021/09/20 03:22:00;;;;;;;32.28;13.32;;;;;;;15.23;73.46;94751.00;4943315;28;20042;-86
2021/09/20 03:24:26;;;;;;;20.48;11.40;;;;;;;15.27;73.02;94741.56;4936270;23;20047;-80
2021/09/20 03:26:52;;;;;;;32.70;12.27;;;;;;;15.32;73.31;94733.72;4937559;28;20040;-78
2021/09/20 03:29:18;;;;;;;54.47;20.00;;;;;;;15.38;72.78;94740.53;4938093;29;20039;-84
2021/09/20 03:31:45;;;;;;;59.80;21.63;;;;;;;15.41;72.92;94737.38;4924309;29;20044;-85
2021/09/20 03:34:10;;;;;;;61.60;21.38;;;;;;;15.47;72.63;94728.47;4954596;29;20286;-86
2021/09/20 03:36:36;;;;;;;46.30;16.58;;;;;;;15.50;71.63;94727.94;4931657;29;20040;-82
2021/09/20 03:39:02;;;;;;;48.60;14.93;;;;;;;15.52;72.29;94727.69;4928472;29;20051;-81
2021/09/20 03:41:28;;;;;;;36.38;11.80;;;;;;;15.49;72.31;94728.22;4980918;23;20560;-80
2021/09/20 03:43:53;;;;;;;16.58;8.10;;;;;;;15.53;72.66;94730.03;4940843;29;20035;-81
2021/09/20 03:46:19;;;;;;;17.20;9.52;;;;;;;15.54;72.75;94742.09;4940187;29;20032;-81
2021/09/20 03:48:44;;;;;;;28.88;10.07;;;;;;;15.59;72.78;94734.25;4938880;29;20032;-82
2021/09/20 03:51:10;;;;;;;17.58;8.68;;;;;;;15.65;72.58;94739.50;4937165;29;20057;-84
2021/09/20 03:53:35;;;;;;;27.88;9.40;;;;;;;15.67;72.54;94734.75;4921643;29;20050;-80
2021/09/20 03:56:02;;;;;;;21.48;9.70;;;;;;;15.70;72.31;94729.00;4936900;29;20078;-81
2021/09/20 03:58:27;;;;;;;41.58;10.70;;;;;;;15.71;72.41;94731.34;4937287;29;20042;-82
2021/09/20 04:00:53;;;;;;;35.42;17.20;;;;;;;15.76;72.48;94720.06;4937267;29;20039;-83
2021/09/20 04:03:27;;;;;;;45.58;19.35;;;;;;;15.83;73.08;94725.81;4937016;29;20050;-82
2021/09/20 04:05:53;;;;;;;56.10;19.17;;;;;;;15.85;73.11;94736.81;4952929;29;20031;-82
2021/09/20 04:08:18;;;;;;;38.63;19.70;;;;;;;15.86;73.57;94738.38;4938157;29;20091;-83
2021/09/20 04:10:44;;;;;;;109.85;19.88;;;;;;;15.87;74.18;94750.44;4937236;29;20055;-83
2021/09/20 04:13:13;;;;;;;37.58;19.23;;;;;;;15.89;74.21;94758.84;4952800;28;20043;-81
2021/09/20 04:15:39;;;;;;;40.88;21.70;;;;;;;15.92;74.11;94745.19;4935369;29;20140;-80
2021/09/20 04:18:05;;;;;;;49.75;19.98;;;;;;;15.92;74.13;94753.06;4938355;29;20526;-81
2021/09/20 04:20:31;;;;;;;42.08;19.88;;;;;;;15.91;74.08;94730.50;4939321;29;20056;-81
2021/09/20 04:22:57;;;;;;;67.10;21.00;;;;;;;15.99;73.85;94727.34;4937154;29;20109;-79
2021/09/20 04:25:22;;;;;;;57.65;19.08;;;;;;;15.98;74.49;94744.13;4933987;29;20035;-79
2021/09/20 04:27:48;;;;;;;38.95;19.17;;;;;;;16.01;74.15;94751.47;4918634;29;20039;-80
2021/09/20 04:30:14;;;;;;;40.00;18.60;;;;;;;16.01;73.79;94756.72;4949985;29;20082;-80
2021/09/20 04:32:39;;;;;;;54.85;16.85;;;;;;;16.05;73.88;94747.25;4918101;29;20035;-80
2021/09/20 04:35:06;;;;;;;32.25;15.95;;;;;;;16.01;73.83;94746.22;4918622;29;20455;-80
2021/09/20 04:37:37;;;;;;;24.40;15.00;;;;;;;16.02;73.89;94747.78;4934489;29;20496;-80
2021/09/20 04:40:04;;;;;;;29.60;16.08;;;;;;;15.99;74.27;94747.53;4944773;29;20103;-80
2021/09/20 04:42:29;;;;;;;33.00;15.57;;;;;;;16.01;74.14;94755.94;4920140;29;20076;-79
2021/09/20 04:44:55;;;;;;;33.05;16.13;;;;;;;16.07;73.71;94745.16;4919630;29;20034;-79
2021/09/20 04:47:20;;;;;;;27.98;15.25;;;;;;;16.07;73.76;94724.16;4936368;29;20043;-80
2021/09/20 04:49:46;;;;;;;26.25;14.25;;;;;;;16.10;73.78;94731.50;4935775;29;20031;-80
2021/09/20 04:52:12;;;;;;;30.60;15.43;;;;;;;16.13;73.39;94744.09;4936549;29;20054;-80
2021/09/20 04:54:37;;;;;;;24.33;13.43;;;;;;;16.16;72.60;94743.56;4935760;29;20522;-79
2021/09/20 04:57:03;;;;;;;18.55;13.43;;;;;;;16.18;72.79;94756.41;4923197;29;20031;-80
2021/09/20 04:59:28;;;;;;;20.65;12.65;;;;;;;16.16;72.64;94746.19;4940289;29;20043;-79
2021/09/20 05:01:54;;;;;;;22.02;12.15;;;;;;;16.13;72.94;94749.34;4940300;29;20040;-80
2021/09/20 05:04:19;;;;;;;24.35;13.60;;;;;;;16.13;73.08;94770.31;4936254;29;20166;-80
2021/09/20 05:06:45;;;;;;;23.60;14.60;;;;;;;16.19;72.86;94771.88;4937215;29;20031;-80
2021/09/20 05:09:10;;;;;;;26.33;15.23;;;;;;;16.25;72.56;94766.59;4918903;29;20040;-79
2021/09/20 05:11:39;;;;;;;24.65;17.02;;;;;;;16.20;72.48;94776.06;4949757;29;20411;-80
2021/09/20 05:14:04;;;;;;;33.47;17.00;;;;;;;16.19;73.26;94782.38;4935777;29;20183;-80
2021/09/20 05:16:39;;;;;;;23.92;17.05;;;;;;;16.23;73.39;94779.97;4934877;29;20074;-80
2021/09/20 05:19:04;;;;;;;22.83;17.08;;;;;;;16.35;72.83;94777.06;4935259;29;20036;-80
2021/09/20 05:21:30;;;;;;;19.08;15.20;;;;;;;16.36;72.83;94779.41;4934944;29;20051;-80
2021/09/20 05:23:56;;;;;;;19.20;14.98;;;;;;;16.43;72.50;94779.13;4938980;29;20023;-79
2021/09/20 05:26:21;;;;;;;18.95;15.13;;;;;;;16.56;71.94;94786.41;4940301;29;20047;-80
2021/09/20 05:28:47;;;;;;;18.85;13.98;;;;;;;16.70;71.32;94784.81;4957452;28;20123;-80
2021/09/20 05:31:12;;;;;;;21.20;15.43;;;;;;;16.78;71.38;94781.63;4942889;29;20054;-80
2021/09/20 05:33:38;;;;;;;26.42;16.55;;;;;;;16.99;70.01;94784.13;4940840;29;20136;-80
2021/09/20 05:36:04;;;;;;;32.53;16.55;;;;;;;17.09;70.28;94782.25;4984472;23;20511;-80
2021/09/20 05:38:30;;;;;;;31.48;16.92;;;;;;;17.23;69.55;94782.38;4941585;29;20131;-80
2021/09/20 05:40:55;;;;;;;30.92;17.60;;;;;;;17.29;68.95;94776.06;4937008;29;20034;-80
2021/09/20 05:43:21;;;;;;;37.65;18.98;;;;;;;17.26;68.44;94770.56;4929318;29;20039;-80
2021/09/20 05:45:46;;;;;;;36.78;18.48;;;;;;;17.22;68.82;94772.94;4916389;29;20033;-80
2021/09/20 05:48:31;;;;;;;37.10;18.83;;;;;;;17.20;68.79;94776.91;4915092;29;20051;-80
2021/09/20 05:50:57;;;;;;;31.05;17.58;;;;;;;17.18;69.25;94768.50;4932211;29;20062;-80
2021/09/20 05:53:22;;;;;;;35.85;17.27;;;;;;;17.24;69.38;94773.44;4934899;29;20512;-79
2021/09/20 05:55:48;;;;;;;27.70;15.73;;;;;;;17.28;68.96;94777.13;4917581;29;20027;-79
2021/09/20 05:58:13;;;;;;;21.88;16.42;;;;;;;17.32;68.95;94780.75;4915001;29;20039;-79
2021/09/20 06:00:39;;;;;;;27.92;15.88;;;;;;;17.31;68.54;94781.81;4933122;29;20096;-79
2021/09/20 06:03:04;;;;;;;31.70;16.27;;;;;;;17.32;68.63;94780.75;4913744;29;20032;-78
2021/09/20 06:05:30;;;;;;;20.50;15.77;;;;;;;17.26;68.02;94768.72;4931709;29;20539;-80
2021/09/20 06:07:55;;;;;;;26.77;17.05;;;;;;;17.34;68.69;94777.84;4929862;29;20119;-79
2021/09/20 06:10:21;;;;;;;25.15;16.88;;;;;;;17.47;68.42;94765.94;4932779;29;20031;-79
2021/09/20 06:12:46;;;;;;;32.25;17.38;;;;;;;17.52;67.80;94764.03;4931132;29;20424;-78
2021/09/20 06:15:12;;;;;;;23.80;17.25;;;;;;;17.59;67.94;94774.25;4920894;29;20055;-79
2021/09/20 06:17:44;;;;;;;28.38;17.35;;;;;;;17.61;67.98;94767.66;4932332;29;20040;-79
2021/09/20 06:20:10;;;;;;;40.13;19.63;;;;;;;17.62;67.95;94766.59;4913717;29;20346;-80
2021/09/20 06:22:35;;;;;;;38.30;20.25;;;;;;;17.61;68.33;94766.88;4930498;29;20039;-79
2021/09/20 06:25:01;;;;;;;37.55;18.90;;;;;;;17.61;68.68;94765.03;4931069;29;20047;-79
2021/09/20 06:27:27;;;;;;;37.28;20.80;;;;;;;17.65;68.80;94763.41;4931750;29;20073;-79
2021/09/20 06:29:52;;;;;;;61.85;20.88;;;;;;;17.72;68.60;94778.88;4932219;29;20115;-78
2021/09/20 06:32:18;;;;;;;53.10;20.52;;;;;;;17.82;68.17;94778.78;4929577;29;20307;-79
2021/09/20 06:34:43;;;;;;;46.72;21.00;;;;;;;17.95;67.87;94777.38;4931891;29;20051;-79
2021/09/20 06:37:09;;;;;;;43.75;20.42;;;;;;;18.08;67.26;94787.22;4929813;29;20040;-80
2021/09/20 06:39:47;;;;;;;31.50;20.10;;;;;;;18.22;66.71;94792.59;4912079;29;20396;-78
2021/09/20 06:42:12;;;;;;;42.42;23.20;;;;;;;18.29;66.56;94787.78;4928028;29;20055;-79
2021/09/20 06:44:37;;;;;;;59.53;27.95;;;;;;;18.29;66.78;94777.25;4930771;29;20106;-79
2021/09/20 06:47:03;;;;;;;43.60;23.33;;;;;;;18.29;66.53;94787.78;4927807;29;20035;-79
2021/09/20 06:49:28;;;;;;;40.90;21.33;;;;;;;18.30;66.75;94786.72;4926695;29;20047;-80
2021/09/20 06:52:07;;;;;;;41.85;21.40;;;;;;;18.29;66.11;94785.94;4975004;23;20145;-78
2021/09/20 06:54:33;;;;;;;33.95;21.55;;;;;;;18.28;66.69;94781.75;4908931;29;20036;-79
2021/09/20 06:56:58;;;;;;;61.40;37.30;;;;;;;18.26;66.65;94783.09;4893000;29;20085;-80
2021/09/20 06:59:26;;;;;;;60.05;33.88;;;;;;;18.31;66.54;94780.41;4898419;29;20044;-80
2021/09/20 07:01:51;;;;;;;62.38;37.00;;;;;;;18.41;66.61;94782.16;4884043;29;20043;-80
2021/09/20 07:04:17;;;;;;;96.97;57.55;;;;;;;18.45;66.23;94778.66;4900509;29;20100;-80
2021/09/20 07:06:45;;;;;;;120.10;66.38;;;;;;;18.52;66.56;94773.81;4890463;29;20521;-80
2021/09/20 07:09:10;;;;;;;125.57;77.95;;;;;;;18.57;66.40;94776.41;4898599;29;20036;-80
2021/09/20 07:11:36;;;;;;;107.32;63.17;;;;;;;18.73;65.93;94770.97;4899206;29;20127;-80
2021/09/20 07:14:02;;;;;;;98.68;49.00;;;;;;;18.86;65.06;94776.31;4898443;29;20044;-80
2021/09/20 07:16:28;;;;;;;110.88;53.30;;;;;;;18.98;64.83;94777.75;4898949;29;20040;-80
2021/09/20 07:18:53;;;;;;;113.18;57.58;;;;;;;19.02;64.15;94782.16;4900704;29;20039;-80
2021/09/20 07:21:22;;;;;;;104.80;56.47;;;;;;;19.12;64.11;94784.66;4898584;29;20065;-80
2021/09/20 07:23:47;;;;;;;102.45;53.38;;;;;;;19.23;63.99;94787.16;4899727;29;20061;-80
2021/09/20 07:26:13;;;;;;;94.10;52.42;;;;;;;19.36;63.58;94775.88;4899828;29;20052;-80
2021/09/20 07:28:38;;;;;;;102.97;52.63;;;;;;;19.60;63.63;94770.53;4899267;29;20032;-79
2021/09/20 07:31:04;;;;;;;87.80;47.25;;;;;;;19.82;62.27;94769.88;4899333;29;20489;-80
2021/09/20 07:33:29;;;;;;;73.90;38.88;;;;;;;20.05;61.05;94780.28;4897426;29;20504;-79
2021/09/20 07:35:55;;;;;;;57.90;33.90;;;;;;;20.18;60.09;94772.69;4899093;29;20040;-79
2021/09/20 07:38:20;;;;;;;46.47;24.17;;;;;;;20.26;59.99;94770.13;4897889;29;20060;-80
2021/09/20 07:40:46;;;;;;;52.22;26.17;;;;;;;20.43;59.69;94780.13;4881479;29;20346;-79
2021/09/20 07:43:11;;;;;;;48.42;25.20;;;;;;;20.61;59.61;94771.31;4899334;29;20045;-81
2021/09/20 07:45:38;;;;;;;48.38;24.42;;;;;;;20.71;59.19;94767.69;4881248;29;20044;-81
2021/09/20 07:48:04;;;;;;;41.53;24.08;;;;;;;20.76;58.68;94762.28;4896819;29;20060;-79
2021/09/20 07:50:33;;;;;;;36.65;22.83;;;;;;;20.82;57.80;94755.03;4997638;23;20019;-80
2021/09/20 07:52:58;;;;;;;49.63;24.60;;;;;;;20.87;58.10;94758.38;4936786;29;20043;-78
2021/09/20 07:55:23;;;;;;;39.50;22.35;;;;;;;20.89;57.55;94745.63;5081608;23;20019;-75
2021/09/20 07:57:52;;;;;;;52.15;24.20;;;;;;;20.96;57.78;94740.69;4954149;29;20052;-81
2021/09/20 08:00:17;;;;;;;52.45;23.30;;;;;;;20.96;57.41;94724.84;4958365;29;20197;-81
2021/09/20 08:02:46;;;;;;;51.25;23.70;;;;;;;20.93;57.65;94730.72;4957933;28;20561;-81
2021/09/20 08:07:47;;;;;;;55.03;25.50;;;;;;;20.61;58.99;94736.19;5129961;23;20456;-80
2021/09/20 08:10:12;;;;;;;38.83;22.48;;;;;;;20.97;57.39;94747.56;4928040;29;20031;-81
2021/09/20 08:12:38;;;;;;;35.15;21.85;;;;;;;20.52;59.34;94757.25;4938381;29;20043;-81
2021/09/20 08:15:04;;;;;;;35.00;22.65;;;;;;;20.79;58.34;94755.63;4938233;29;20031;-79
2021/09/20 08:17:32;;;;;;;44.75;23.00;;;;;;;20.92;57.52;94747.66;4936539;29;20118;-80
2021/09/20 08:19:58;;;;;;;39.05;21.52;;;;;;;21.08;58.16;94747.34;4921020;29;20340;-80
2021/09/20 08:22:23;;;;;;;59.53;31.15;;;;;;;21.42;56.36;94744.97;4938338;29;20484;-80
2021/09/20 08:27:23;;;;;;;40.33;19.67;;;;;;;21.87;54.72;94745.72;4984360;23;20063;-81
2021/09/20 08:29:49;;;;;;;29.55;16.88;;;;;;;21.95;54.77;94733.59;4928867;29;20032;-80
2021/09/20 08:32:15;;;;;;;32.25;17.13;;;;;;;22.05;54.54;94732.56;4910152;29;20036;-78
2021/09/20 08:34:57;;;;;;;33.58;17.02;;;;;;;21.86;54.10;94719.53;4914058;29;20123;-79
2021/09/20 08:37:23;;;;;;;;;;;;;;;21.84;54.17;94727.78;4900150;29;20036;-79
2021/09/20 08:42:27;;;;;;;36.80;17.88;;;;;;;21.81;53.88;94727.63;5041793;23;20088;-80
2021/09/20 08:44:53;;;;;;;30.27;18.48;;;;;;;21.89;54.10;94713.63;4936503;29;20027;-84
2021/09/20 08:47:22;;;;;;;39.65;19.05;;;;;;;22.01;54.14;94719.16;4926430;29;20032;-81
2021/09/20 08:49:50;;;;;;;39.65;19.67;;;;;;;22.30;53.44;94688.72;4922424;29;20041;-81
2021/09/20 08:54:56;;;;;;;43.42;20.98;;;;;;;22.51;53.28;94700.31;5006272;23;20056;-81
2021/09/20 08:57:22;;;;;;;48.00;21.15;;;;;;;22.60;52.98;94690.47;4939354;29;20042;-81
2021/09/20 08:59:47;;;;;;;45.45;21.25;;;;;;;22.66;52.41;94705.16;4936792;29;20041;-83
2021/09/20 09:02:15;;;;;;;53.78;22.48;;;;;;;22.57;53.29;94685.81;4921770;29;20063;-82
2021/09/20 09:04:43;;;;;;;36.00;20.20;;;;;;;22.59;53.44;94678.31;4940562;29;20075;-82
2021/09/20 09:07:17;;;;;;;46.58;21.35;;;;;;;22.55;52.78;94687.22;4923047;29;20032;-82
2021/09/20 09:09:47;;;;;;;37.00;18.48;;;;;;;22.51;52.59;94680.97;4936998;29;20040;-82
2021/09/20 09:12:20;;;;;;;33.13;17.35;;;;;;;22.29;52.63;94674.72;4937920;29;20056;-82
2021/09/20 09:15:08;;;;;;;34.10;17.05;;;;;;;22.26;53.47;94680.59;4921688;29;20036;-82
2021/09/20 09:17:38;;;;;;;32.15;17.38;;;;;;;22.38;53.70;94685.31;4922494;29;20055;-82
2021/09/20 09:20:10;;;;;;;34.60;19.30;;;;;;;22.39;53.81;94686.88;4937444;29;20039;-82
2021/09/20 09:22:47;;;;;;;39.78;19.60;;;;;;;22.14;53.96;94681.22;4908829;29;20055;-81
2021/09/20 09:25:21;;;;;;;32.28;17.42;;;;;;;21.62;55.16;94676.75;4950246;29;20063;-81
2021/09/20 09:27:49;;;;;;;27.00;16.13;;;;;;;21.50;55.44;94678.13;4932991;29;20118;-81
2021/09/20 09:30:20;;;;;;;33.47;15.50;;;;;;;21.58;55.70;94677.38;4947140;29;20052;-81
2021/09/20 09:32:46;;;;;;;35.80;17.00;;;;;;;21.54;56.36;94679.06;4949539;29;20043;-81
2021/09/20 09:35:13;;;;;;;37.47;16.13;;;;;;;21.51;56.59;94679.69;4940636;29;20100;-82
2021/09/20 09:37:40;;;;;;;36.13;14.60;;;;;;;21.53;56.35;94692.59;4938083;29;20515;-82
2021/09/20 09:40:11;;;;;;;26.00;14.27;;;;;;;21.40;57.13;94686.28;4940948;29;20032;-82
2021/09/20 09:42:37;;;;;;;29.75;13.95;;;;;;;21.18;57.78;94679.13;4939179;29;20140;-82
2021/09/20 09:45:25;;;;;;;31.75;14.32;;;;;;;21.18;57.79;94687.06;4939616;29;20081;-82
2021/09/20 09:47:51;;;;;;;33.67;15.30;;;;;;;21.11;57.35;94691.97;4955285;28;20046;-82
2021/09/20 09:50:23;;;;;;;28.20;13.60;;;;;;;20.93;58.15;94682.38;4925759;23;20035;-82
2021/09/20 09:52:53;;;;;;;25.38;12.32;;;;;;;20.89;58.80;94697.28;4921223;29;20056;-82
2021/09/20 09:55:18;;;;;;;36.42;14.80;;;;;;;21.01;57.51;94683.53;4918555;29;20076;-82
2021/09/20 09:57:44;;;;;;;21.45;13.38;;;;;;;21.14;58.49;94687.94;4919414;29;20040;-82
2021/09/20 10:00:14;;;;;;;32.65;14.68;;;;;;;21.23;58.23;94681.66;4919044;29;20420;-82
2021/09/20 10:02:41;;;;;;;26.52;13.73;;;;;;;21.36;57.35;94685.34;4934163;29;20453;-82
2021/09/20 10:05:18;;;;;;;29.75;12.95;;;;;;;21.54;56.69;94676.41;4933559;29;20036;-82
2021/09/20 10:07:45;;;;;;;35.20;13.73;;;;;;;21.51;56.98;94666.44;4917442;29;20074;-82
2021/09/20 10:10:28;;;;;;;29.52;14.18;;;;;;;21.77;56.24;94658.59;4918277;29;20408;-82
2021/09/20 10:12:55;;;;;;;28.20;13.93;;;;;;;21.69;56.37;94663.88;4920979;29;20044;-82
2021/09/20 10:15:23;;;;;;;27.83;13.00;;;;;;;21.94;56.57;94662.41;4936641;29;20031;-82
2021/09/20 10:17:48;;;;;;;31.70;12.20;;;;;;;22.19;55.20;94666.25;4936421;29;20042;-83
2021/09/20 10:20:18;;;;;;;35.15;13.23;;;;;;;22.46;55.20;94658.06;4920641;29;20040;-82
2021/09/20 10:22:44;;;;;;;25.80;12.02;;;;;;;22.74;54.52;94648.69;4936076;29;20143;-82
2021/09/20 10:25:10;;;;;;;33.80;12.48;;;;;;;23.01;53.17;94646.88;4918784;29;20113;-80
2021/09/20 10:27:36;;;;;;;23.17;11.80;;;;;;;23.27;52.15;94647.63;4903505;29;20036;-80
2021/09/20 10:30:10;;;;;;;16.67;10.88;;;;;;;23.41;52.04;94643.97;4918001;29;20035;-82
2021/09/20 10:32:37;;;;;;;33.72;10.70;;;;;;;23.54;51.70;94650.97;4921414;29;20047;-82
2021/09/20 10:35:20;;;;;;;33.30;11.75;;;;;;;23.46;51.46;94630.56;4920089;29;20036;-81
2021/09/20 10:37:47;;;;;;;28.25;11.52;;;;;;;23.48;51.73;94628.34;4935908;29;20040;-82
2021/09/20 10:40:30;;;;;;;27.42;10.45;;;;;;;23.23;52.07;94614.81;4921924;29;20113;-82
2021/09/20 10:42:59;;;;;;;22.08;10.57;;;;;;;23.14;52.77;94608.78;4920955;29;20040;-82
2021/09/20 10:45:39;;;;;;;28.08;12.52;;;;;;;23.09;52.96;94616.88;4921230;29;20032;-83
2021/09/20 10:48:28;;;;;;;31.42;10.85;;;;;;;23.07;52.72;94613.78;4919104;29;20079;-82
2021/09/20 10:51:17;;;;;;;22.48;10.75;;;;;;;23.20;52.43;94612.81;4919737;29;20087;-83
2021/09/20 10:53:43;;;;;;;29.45;12.95;;;;;;;22.90;53.43;94619.88;4919444;29;20428;-80
2021/09/20 10:56:13;;;;;;;21.27;10.93;;;;;;;22.67;53.39;94618.47;4918431;29;20067;-82
2021/09/20 10:58:51;;;;;;;20.38;10.95;;;;;;;22.84;53.42;94609.75;4920779;29;20035;-82
2021/09/20 11:01:35;;;;;;;33.70;11.52;;;;;;;22.89;53.65;94598.97;4919324;29;20103;-82
2021/09/20 11:04:03;;;;;;;24.40;10.75;;;;;;;23.02;53.82;94613.94;4905499;29;20043;-82
2021/09/20 11:06:29;;;;;;;25.35;10.43;;;;;;;23.16;52.86;94606.59;4920307;29;20032;-82
2021/09/20 11:08:57;;;;;;;21.42;9.90;;;;;;;23.29;52.22;94589.69;4920027;29;20051;-83
2021/09/20 11:11:44;;;;;;;22.73;9.43;;;;;;;23.32;52.34;94583.75;4920964;29;20043;-82
2021/09/20 11:14:20;;;;;;;27.65;9.73;;;;;;;23.40;52.33;94581.38;4936348;29;20051;-80
2021/09/20 11:16:56;;;;;;;19.60;9.43;;;;;;;23.51;51.39;94566.66;4923249;29;20064;-82
2021/09/20 11:19:27;;;;;;;24.83;9.50;;;;;;;23.52;52.20;94562.91;4925899;29;20055;-80
2021/09/20 11:24:37;;;;;;;24.52;9.25;;;;;;;23.61;51.87;94558.38;4926161;29;20075;-81
2021/09/20 11:27:04;;;;;;;18.42;8.10;;;;;;;23.72;51.85;94538.31;4924478;29;20039;-80
2021/09/20 11:29:29;;;;;;;31.23;7.28;;;;;;;23.83;51.11;94534.22;4921091;29;20044;-80
2021/09/20 11:31:55;;;;;;;20.05;6.18;;;;;;;23.99;50.34;94526.44;4936073;29;20039;-80
2021/09/20 11:34:49;;;;;;;28.98;6.82;;;;;;;24.17;49.26;94527.09;4922380;29;20239;-81